Bookmark and Share
Track history (hours):
 

MSC Sinfonia

Last reported at 2014-Apr-22 22:15 UTC. Time now 2014-Apr-23 13:16 UTC.
Position N 35°58' W 005°35'.

Length 251 m; draft 6.8 m.

Type: Passenger vessel. MMSI: 356715971.

NotesDate/timePositionNaut miles runAvg speedWind from/ knotsBaromVisibWave heightAir tempDewpointWater temp
2014-Apr-22 22:15N 35°58' W 005°35'1116.2
2014-Apr-22 21:33N 36°02' W 005°21'24510.7
2014-Apr-21 22:33N 37°32' W 000°37'17318.6
2014-Apr-21 13:13N 39°42' E 001°50'1319.7
2014-Apr-21 12:33N 39°51' E 002°03'1818.2
2014-Apr-21 11:33N 40°03' E 002°21'1919.6
2014-Apr-21 10:33N 40°16' E 002°40'2019.3
2014-Apr-21 09:33N 40°29' E 002°59'1918.8
2014-Apr-21 08:32N 40°41' E 003°18'2020.1
2014-Apr-21 07:32N 40°54' E 003°38'1919.4
2014-Apr-21 06:32N 41°07' E 003°58'1919.4
2014-Apr-21 05:32N 41°20' E 004°17'1919.5
2014-Apr-21 04:33N 41°32' E 004°36'1918.9
2014-Apr-21 03:32N 41°45' E 004°55'2220.3
2014-Apr-21 02:28N 41°59' E 005°17'5719.7
2014-Apr-20 23:33N 42°37' E 006°16'2420.0
2014-Apr-20 22:23N 42°53' E 006°40'9920.5
2014-Apr-20 17:33N 43°58' E 008°23'2020.1
2014-Apr-20 16:33N 44°11' E 008°44'1515.4
2014-Apr-20 15:33N 44°24' E 008°55'1 0.9
2014-Apr-20 14:30N 44°25' E 008°55'0 0.0
2014-Apr-20 13:30N 44°25' E 008°55'0 0.0
2014-Apr-20 12:30N 44°25' E 008°55'0 0.0
2014-Apr-20 11:33N 44°25' E 008°55'0 0.0
2014-Apr-20 10:33N 44°25' E 008°55'0 0.0
2014-Apr-20 09:30N 44°25' E 008°55'0 0.0
2014-Apr-20 08:30N 44°25' E 008°55'0 0.0
2014-Apr-20 07:33N 44°25' E 008°55'7 6.9
2014-Apr-20 06:34N 44°19' E 008°60'1918.9
2014-Apr-20 05:34N 44°02' E 009°12'1918.6
2014-Apr-20 04:34N 43°46' E 009°25'1818.3
2014-Apr-20 03:34N 43°30' E 009°36'1817.7
2014-Apr-20 02:33N 43°15' E 009°49'22417.0
2014-Apr-19 13:25N 40°42' E 013°30'1517.1
2014-Apr-19 12:31N 40°39' E 013°50'1515.5
2014-Apr-19 11:34N 40°44' E 014°08'9 1.2
2014-Apr-19 04:13N 40°50' E 014°17'7 9.8
2014-Apr-19 03:33N 40°43' E 014°15'1312.5
2014-Apr-19 02:33N 40°31' E 014°10'47713.2
2014-Apr-17 14:29N 37°36' E 023°42'1616.9
2014-Apr-17 13:33N 37°52' E 023°37'5 4.5
2014-Apr-17 12:31N 37°56' E 023°38'0 0.0
2014-Apr-17 11:31N 37°56' E 023°38'0 0.0
2014-Apr-17 10:31N 37°56' E 023°38'0 0.0
2014-Apr-17 09:31N 37°56' E 023°38'0 0.0
2014-Apr-17 08:31N 37°56' E 023°38'0 0.0
2014-Apr-17 07:31N 37°56' E 023°38'0 0.0
2014-Apr-17 06:31N 37°56' E 023°38'0 0.0
2014-Apr-17 05:33N 37°56' E 023°38'2 2.0
2014-Apr-17 04:33N 37°54' E 023°38'10 9.7
2014-Apr-17 03:33N 37°46' E 023°42'155 4.3
2014-Apr-15 15:32N 39°50' E 025°41'  

Dump ship's entire track history

sailing weather and tide predictions

MSC Sinfonia — H8XH — position and weather